sensor_id;sensor_type;location;lat;lon;timestamp;pressure;altitude;pressure_sealevel;temperature;humidity
49825;BME280;35714;55.708;37.478;2023-07-08T00:00:49;99278.69;;;19.25;82.47
49825;BME280;35714;55.708;37.478;2023-07-08T00:03:15;99271.53;;;19.24;82.74
49825;BME280;35714;55.708;37.478;2023-07-08T00:05:41;99276.22;;;19.23;83.03
49825;BME280;35714;55.708;37.478;2023-07-08T00:08:14;99281.13;;;19.26;82.67
49825;BME280;35714;55.708;37.478;2023-07-08T00:10:39;99277.56;;;19.26;82.95
49825;BME280;35714;55.708;37.478;2023-07-08T00:13:05;99274.28;;;19.24;82.96
49825;BME280;35714;55.708;37.478;2023-07-08T00:15:32;99270.72;;;19.23;82.76
49825;BME280;35714;55.708;37.478;2023-07-08T00:17:59;99292.72;;;19.23;82.95
49825;BME280;35714;55.708;37.478;2023-07-08T00:22:59;99290.78;;;19.24;82.88
49825;BME280;35714;55.708;37.478;2023-07-08T00:25:28;99295.47;;;19.23;82.51
49825;BME280;35714;55.708;37.478;2023-07-08T00:27:54;99285.88;;;19.21;82.30
49825;BME280;35714;55.708;37.478;2023-07-08T00:30:23;99296.34;;;19.19;82.57
49825;BME280;35714;55.708;37.478;2023-07-08T00:32:50;99293.09;;;19.17;82.80
49825;BME280;35714;55.708;37.478;2023-07-08T00:35:38;99287.06;;;19.15;82.86
49825;BME280;35714;55.708;37.478;2023-07-08T00:38:25;99297.16;;;19.19;82.68
49825;BME280;35714;55.708;37.478;2023-07-08T00:43:50;99299.09;;;19.19;83.14
49825;BME280;35714;55.708;37.478;2023-07-08T00:51:49;99306.97;;;19.25;82.66
49825;BME280;35714;55.708;37.478;2023-07-08T00:54:18;99303.13;;;19.26;82.32
49825;BME280;35714;55.708;37.478;2023-07-08T00:56:48;99306.97;;;19.25;82.70
49825;BME280;35714;55.708;37.478;2023-07-08T00:59:29;99299.56;;;19.26;82.46
49825;BME280;35714;55.708;37.478;2023-07-08T01:01:58;99303.13;;;19.26;82.53
49825;BME280;35714;55.708;37.478;2023-07-08T01:04:34;99302.03;;;19.27;82.36
49825;BME280;35714;55.708;37.478;2023-07-08T01:07:03;99293.53;;;19.24;82.17
49825;BME280;35714;55.708;37.478;2023-07-08T01:09:38;99295.94;;;19.31;82.11
49825;BME280;35714;55.708;37.478;2023-07-08T01:12:11;99302.25;;;19.31;82.03
49825;BME280;35714;55.708;37.478;2023-07-08T01:14:40;99294.59;;;19.28;82.23
49825;BME280;35714;55.708;37.478;2023-07-08T01:17:08;99304.41;;;19.34;82.44
49825;BME280;35714;55.708;37.478;2023-07-08T01:19:41;99315.91;;;19.36;82.14
49825;BME280;35714;55.708;37.478;2023-07-08T01:22:07;99303.81;;;19.37;81.46
49825;BME280;35714;55.708;37.478;2023-07-08T01:24:36;99312.56;;;19.39;81.41
49825;BME280;35714;55.708;37.478;2023-07-08T01:27:05;99310.31;;;19.41;81.82
49825;BME280;35714;55.708;37.478;2023-07-08T01:29:33;99319.13;;;19.43;81.70
49825;BME280;35714;55.708;37.478;2023-07-08T01:31:59;99300.53;;;19.35;81.36
49825;BME280;35714;55.708;37.478;2023-07-08T01:34:33;99319.56;;;19.51;81.07
49825;BME280;35714;55.708;37.478;2023-07-08T01:37:02;99320.09;;;19.53;81.07
49825;BME280;35714;55.708;37.478;2023-07-08T01:39:30;99310.41;;;19.55;80.79
49825;BME280;35714;55.708;37.478;2023-07-08T01:41:57;99314.59;;;19.53;80.25
49825;BME280;35714;55.708;37.478;2023-07-08T01:44:36;99320.00;;;19.58;80.15
49825;BME280;35714;55.708;37.478;2023-07-08T01:47:14;99316.66;;;19.61;80.12
49825;BME280;35714;55.708;37.478;2023-07-08T01:49:42;99312.28;;;19.60;79.96
49825;BME280;35714;55.708;37.478;2023-07-08T01:52:11;99312.28;;;19.60;79.78
49825;BME280;35714;55.708;37.478;2023-07-08T01:54:37;99305.66;;;19.61;79.81
49825;BME280;35714;55.708;37.478;2023-07-08T01:57:04;99317.19;;;19.63;79.75
49825;BME280;35714;55.708;37.478;2023-07-08T01:59:30;99307.81;;;19.64;79.70
49825;BME280;35714;55.708;37.478;2023-07-08T02:01:56;99302.03;;;19.65;79.60
49825;BME280;35714;55.708;37.478;2023-07-08T02:04:22;99309.88;;;19.72;79.31
49825;BME280;35714;55.708;37.478;2023-07-08T02:06:57;99313.44;;;19.78;79.26
49825;BME280;35714;55.708;37.478;2023-07-08T02:09:23;99306.28;;;19.77;79.37
49825;BME280;35714;55.708;37.478;2023-07-08T02:11:51;99307.63;;;19.79;79.14
49825;BME280;35714;55.708;37.478;2023-07-08T02:14:17;99299.66;;;19.78;79.12
49825;BME280;35714;55.708;37.478;2023-07-08T02:16:42;99298.53;;;19.79;79.01
49825;BME280;35714;55.708;37.478;2023-07-08T02:19:10;99304.28;;;19.82;78.94
49825;BME280;35714;55.708;37.478;2023-07-08T02:21:35;99303.69;;;19.86;79.29
49825;BME280;35714;55.708;37.478;2023-07-08T02:24:03;99290.44;;;19.88;78.67
49825;BME280;35714;55.708;37.478;2023-07-08T02:26:28;99297.28;;;19.90;79.19
49825;BME280;35714;55.708;37.478;2023-07-08T02:28:58;99286.25;;;19.90;78.83
49825;BME280;35714;55.708;37.478;2023-07-08T02:31:24;99292.50;;;19.96;78.75
49825;BME280;35714;55.708;37.478;2023-07-08T02:33:51;99292.19;;;19.97;78.76
49825;BME280;35714;55.708;37.478;2023-07-08T02:36:17;99292.09;;;20.02;78.61
49825;BME280;35714;55.708;37.478;2023-07-08T02:38:43;99288.22;;;20.04;78.25
49825;BME280;35714;55.708;37.478;2023-07-08T02:41:09;99292.09;;;20.02;78.18
49825;BME280;35714;55.708;37.478;2023-07-08T02:43:37;99311.28;;;20.08;77.93
49825;BME280;35714;55.708;37.478;2023-07-08T02:46:05;99311.00;;;20.09;77.85
49825;BME280;35714;55.708;37.478;2023-07-08T02:48:30;99307.94;;;20.11;77.75
49825;BME280;35714;55.708;37.478;2023-07-08T02:51:00;99314.47;;;20.15;77.51
49825;BME280;35714;55.708;37.478;2023-07-08T02:53:26;99307.03;;;20.15;77.22
49825;BME280;35714;55.708;37.478;2023-07-08T02:55:52;99310.59;;;20.16;76.93
49825;BME280;35714;55.708;37.478;2023-07-08T02:58:17;99299.28;;;20.17;76.67
49825;BME280;35714;55.708;37.478;2023-07-08T03:00:43;99294.81;;;20.22;76.68
49825;BME280;35714;55.708;37.478;2023-07-08T03:03:08;99287.56;;;20.26;76.48
49825;BME280;35714;55.708;37.478;2023-07-08T03:05:34;99286.06;;;20.33;76.17
49825;BME280;35714;55.708;37.478;2023-07-08T03:08:00;99276.88;;;20.38;76.05
49825;BME280;35714;55.708;37.478;2023-07-08T03:10:26;99280.38;;;20.44;75.48
49825;BME280;35714;55.708;37.478;2023-07-08T03:12:51;99273.66;;;20.50;75.38
49825;BME280;35714;55.708;37.478;2023-07-08T03:15:17;99285.69;;;20.54;75.24
49825;BME280;35714;55.708;37.478;2023-07-08T03:17:43;99285.06;;;20.57;74.63
49825;BME280;35714;55.708;37.478;2023-07-08T03:20:10;99285.28;;;20.61;74.74
49825;BME280;35714;55.708;37.478;2023-07-08T03:22:37;99292.88;;;20.69;74.11
49825;BME280;35714;55.708;37.478;2023-07-08T03:25:02;99290.00;;;20.74;74.10
49825;BME280;35714;55.708;37.478;2023-07-08T03:27:31;99293.69;;;20.83;73.33
49825;BME280;35714;55.708;37.478;2023-07-08T03:29:57;99294.69;;;20.87;72.99
49825;BME280;35714;55.708;37.478;2023-07-08T03:32:23;99290.22;;;20.91;73.08
49825;BME280;35714;55.708;37.478;2023-07-08T03:34:51;99293.06;;;21.00;72.57
49825;BME280;35714;55.708;37.478;2023-07-08T03:37:16;99291.84;;;21.06;72.16
49825;BME280;35714;55.708;37.478;2023-07-08T03:39:42;99282.00;;;21.14;71.89
49825;BME280;35714;55.708;37.478;2023-07-08T03:42:09;99292.94;;;21.19;71.45
49825;BME280;35714;55.708;37.478;2023-07-08T03:44:34;99292.22;;;21.27;70.93
49825;BME280;35714;55.708;37.478;2023-07-08T03:47:00;99290.97;;;21.34;70.52
49825;BME280;35714;55.708;37.478;2023-07-08T03:49:26;99291.88;;;21.43;70.49
49825;BME280;35714;55.708;37.478;2023-07-08T03:51:54;99291.56;;;21.58;69.93
49825;BME280;35714;55.708;37.478;2023-07-08T03:54:22;99292.09;;;21.69;69.54
49825;BME280;35714;55.708;37.478;2023-07-08T03:56:48;99279.81;;;21.75;68.93
49825;BME280;35714;55.708;37.478;2023-07-08T03:59:15;99284.72;;;21.78;68.76
49825;BME280;35714;55.708;37.478;2023-07-08T04:01:41;99278.38;;;21.78;68.51
49825;BME280;35714;55.708;37.478;2023-07-08T04:04:13;99278.56;;;21.81;68.34
49825;BME280;35714;55.708;37.478;2023-07-08T04:06:38;99278.78;;;21.85;68.19
49825;BME280;35714;55.708;37.478;2023-07-08T04:09:06;99273.63;;;21.92;68.15
49825;BME280;35714;55.708;37.478;2023-07-08T04:11:32;99287.97;;;22.03;68.03
49825;BME280;35714;55.708;37.478;2023-07-08T04:13:58;99289.03;;;22.16;67.56
49825;BME280;35714;55.708;37.478;2023-07-08T04:16:27;99303.06;;;22.28;67.05
49825;BME280;35714;55.708;37.478;2023-07-08T04:18:54;99306.75;;;22.38;66.63
49825;BME280;35714;55.708;37.478;2023-07-08T04:21:22;99300.44;;;22.46;65.97
49825;BME280;35714;55.708;37.478;2023-07-08T04:23:51;99305.97;;;22.46;65.05
49825;BME280;35714;55.708;37.478;2023-07-08T04:26:17;99307.22;;;22.40;65.35
49825;BME280;35714;55.708;37.478;2023-07-08T04:28:44;99314.09;;;22.42;65.16
49825;BME280;35714;55.708;37.478;2023-07-08T04:31:10;99310.50;;;22.42;65.41
49825;BME280;35714;55.708;37.478;2023-07-08T04:33:36;99304.84;;;22.47;64.93
49825;BME280;35714;55.708;37.478;2023-07-08T04:36:02;99312.97;;;22.52;64.43
49825;BME280;35714;55.708;37.478;2023-07-08T04:38:29;99318.16;;;22.45;62.82
49825;BME280;35714;55.708;37.478;2023-07-08T04:40:55;99320.56;;;22.15;63.56
49825;BME280;35714;55.708;37.478;2023-07-08T04:43:22;99327.06;;;21.96;64.52
49825;BME280;35714;55.708;37.478;2023-07-08T04:45:53;99313.16;;;21.79;64.97
49825;BME280;35714;55.708;37.478;2023-07-08T04:48:20;99326.00;;;21.84;65.23
49825;BME280;35714;55.708;37.478;2023-07-08T04:50:51;99314.75;;;21.80;65.46
49825;BME280;35714;55.708;37.478;2023-07-08T04:53:17;99308.75;;;21.78;65.23
49825;BME280;35714;55.708;37.478;2023-07-08T04:55:56;99302.72;;;21.76;65.53
49825;BME280;35714;55.708;37.478;2023-07-08T04:58:22;99283.16;;;21.63;65.81
49825;BME280;35714;55.708;37.478;2023-07-08T05:00:48;99301.13;;;21.61;65.91
49825;BME280;35714;55.708;37.478;2023-07-08T05:03:14;99309.03;;;21.54;65.89
49825;BME280;35714;55.708;37.478;2023-07-08T05:05:40;99312.78;;;21.44;65.57
49825;BME280;35714;55.708;37.478;2023-07-08T05:08:06;99315.47;;;21.35;65.69
49825;BME280;35714;55.708;37.478;2023-07-08T05:10:33;99314.28;;;21.27;65.69
49825;BME280;35714;55.708;37.478;2023-07-08T05:13:00;99328.19;;;21.22;65.49
49825;BME280;35714;55.708;37.478;2023-07-08T05:15:25;99327.94;;;21.19;65.82
49825;BME280;35714;55.708;37.478;2023-07-08T05:17:51;99334.09;;;21.16;65.95
49825;BME280;35714;55.708;37.478;2023-07-08T05:20:18;99326.13;;;21.14;65.68
49825;BME280;35714;55.708;37.478;2023-07-08T05:22:44;99332.66;;;21.18;65.85
49825;BME280;35714;55.708;37.478;2023-07-08T05:25:12;99335.31;;;21.23;66.31
49825;BME280;35714;55.708;37.478;2023-07-08T05:27:38;99326.31;;;21.32;65.86
49825;BME280;35714;55.708;37.478;2023-07-08T05:30:05;99335.38;;;21.46;65.59
49825;BME280;35714;55.708;37.478;2023-07-08T05:32:34;99324.84;;;21.62;65.26
49825;BME280;35714;55.708;37.478;2023-07-08T05:35:00;99324.56;;;21.86;65.07
49825;BME280;35714;55.708;37.478;2023-07-08T05:37:26;99314.25;;;22.01;64.38
49825;BME280;35714;55.708;37.478;2023-07-08T05:39:55;99316.34;;;22.17;63.85
49825;BME280;35714;55.708;37.478;2023-07-08T05:42:22;99320.69;;;22.32;63.25
49825;BME280;35714;55.708;37.478;2023-07-08T05:44:48;99327.56;;;22.44;63.13
49825;BME280;35714;55.708;37.478;2023-07-08T05:47:14;99326.94;;;22.47;62.69
49825;BME280;35714;55.708;37.478;2023-07-08T05:49:41;99326.00;;;22.51;62.62
49825;BME280;35714;55.708;37.478;2023-07-08T05:52:07;99317.88;;;22.55;62.23
49825;BME280;35714;55.708;37.478;2023-07-08T05:54:37;99317.25;;;22.58;62.19
49825;BME280;35714;55.708;37.478;2023-07-08T05:57:05;99310.44;;;22.64;62.29
49825;BME280;35714;55.708;37.478;2023-07-08T05:59:31;99305.28;;;22.72;61.55
49825;BME280;35714;55.708;37.478;2023-07-08T06:01:56;99306.63;;;22.83;61.79
49825;BME280;35714;55.708;37.478;2023-07-08T06:04:22;99310.69;;;22.85;61.42
49825;BME280;35714;55.708;37.478;2023-07-08T06:06:48;99315.41;;;22.85;60.92
49825;BME280;35714;55.708;37.478;2023-07-08T06:09:13;99308.75;;;22.86;60.96
49825;BME280;35714;55.708;37.478;2023-07-08T06:11:39;99309.59;;;22.95;60.67
49825;BME280;35714;55.708;37.478;2023-07-08T06:14:05;99299.34;;;23.04;59.92
49825;BME280;35714;55.708;37.478;2023-07-08T06:16:30;99297.97;;;23.16;59.95
49825;BME280;35714;55.708;37.478;2023-07-08T06:18:57;99297.97;;;23.24;59.52
49825;BME280;35714;55.708;37.478;2023-07-08T06:21:23;99299.59;;;23.34;58.91
49825;BME280;35714;55.708;37.478;2023-07-08T06:23:49;99304.50;;;23.37;58.66
49825;BME280;35714;55.708;37.478;2023-07-08T06:26:15;99303.69;;;23.37;58.40
49825;BME280;35714;55.708;37.478;2023-07-08T06:28:40;99312.00;;;23.37;58.42
49825;BME280;35714;55.708;37.478;2023-07-08T06:31:06;99311.50;;;23.35;58.43
49825;BME280;35714;55.708;37.478;2023-07-08T06:33:31;99302.88;;;23.36;58.65
49825;BME280;35714;55.708;37.478;2023-07-08T06:35:57;99294.41;;;23.41;58.05
49825;BME280;35714;55.708;37.478;2023-07-08T06:38:23;99287.75;;;23.42;57.66
49825;BME280;35714;55.708;37.478;2023-07-08T06:40:48;99290.53;;;23.42;57.68
49825;BME280;35714;55.708;37.478;2023-07-08T06:43:14;99284.47;;;23.40;57.56
49825;BME280;35714;55.708;37.478;2023-07-08T06:45:47;99295.06;;;23.38;57.32
49825;BME280;35714;55.708;37.478;2023-07-08T06:48:13;99284.81;;;23.30;57.47
49825;BME280;35714;55.708;37.478;2023-07-08T06:50:41;99281.22;;;23.21;57.73
49825;BME280;35714;55.708;37.478;2023-07-08T06:53:07;99283.81;;;23.17;57.15
49825;BME280;35714;55.708;37.478;2023-07-08T06:55:33;99289.16;;;23.14;57.63
49825;BME280;35714;55.708;37.478;2023-07-08T06:57:59;99287.06;;;23.19;57.83
49825;BME280;35714;55.708;37.478;2023-07-08T07:00:24;99286.25;;;23.28;57.74
49825;BME280;35714;55.708;37.478;2023-07-08T07:02:50;99291.63;;;23.33;57.52
49825;BME280;35714;55.708;37.478;2023-07-08T07:05:15;99286.94;;;23.33;56.80
49825;BME280;35714;55.708;37.478;2023-07-08T07:07:41;99290.50;;;23.25;57.39
49825;BME280;35714;55.708;37.478;2023-07-08T07:10:07;99301.69;;;23.20;57.00
49825;BME280;35714;55.708;37.478;2023-07-08T07:12:33;99300.38;;;23.09;57.15
49825;BME280;35714;55.708;37.478;2023-07-08T07:15:00;99302.91;;;22.96;57.25
49825;BME280;35714;55.708;37.478;2023-07-08T07:17:26;99296.53;;;22.87;57.55
49825;BME280;35714;55.708;37.478;2023-07-08T07:19:55;99295.25;;;22.84;57.68
49825;BME280;35714;55.708;37.478;2023-07-08T07:22:21;99293.78;;;22.87;57.81
49825;BME280;35714;55.708;37.478;2023-07-08T07:24:48;99295.09;;;22.89;57.23
49825;BME280;35714;55.708;37.478;2023-07-08T07:27:13;99291.38;;;22.94;57.67
49825;BME280;35714;55.708;37.478;2023-07-08T07:29:47;99290.56;;;23.02;57.17
49825;BME280;35714;55.708;37.478;2023-07-08T07:32:14;99291.06;;;23.04;57.03
49825;BME280;35714;55.708;37.478;2023-07-08T07:34:40;99290.63;;;23.20;57.06
49825;BME280;35714;55.708;37.478;2023-07-08T07:37:10;99283.34;;;23.41;56.56
49825;BME280;35714;55.708;37.478;2023-07-08T07:39:37;99285.97;;;23.73;55.51
49825;BME280;35714;55.708;37.478;2023-07-08T07:42:03;99292.16;;;23.96;54.42
49825;BME280;35714;55.708;37.478;2023-07-08T07:44:28;99281.72;;;24.10;53.99
49825;BME280;35714;55.708;37.478;2023-07-08T07:46:54;99290.97;;;24.23;53.58
49825;BME280;35714;55.708;37.478;2023-07-08T07:49:20;99283.97;;;24.26;53.65
49825;BME280;35714;55.708;37.478;2023-07-08T07:51:46;99293.91;;;24.18;53.36
49825;BME280;35714;55.708;37.478;2023-07-08T07:54:12;99302.91;;;24.06;53.39
49825;BME280;35714;55.708;37.478;2023-07-08T07:56:38;99301.28;;;23.88;53.98
49825;BME280;35714;55.708;37.478;2023-07-08T07:59:03;99306.00;;;23.70;54.16
49825;BME280;35714;55.708;37.478;2023-07-08T08:01:29;99315.09;;;23.53;54.24
49825;BME280;35714;55.708;37.478;2023-07-08T08:03:55;99311.03;;;23.41;54.56
49825;BME280;35714;55.708;37.478;2023-07-08T08:06:20;99315.41;;;23.34;54.68
49825;BME280;35714;55.708;37.478;2023-07-08T08:08:46;99313.44;;;23.26;55.04
49825;BME280;35714;55.708;37.478;2023-07-08T08:11:13;99319.13;;;23.20;55.10
49825;BME280;35714;55.708;37.478;2023-07-08T08:13:39;99317.81;;;23.18;55.43
49825;BME280;35714;55.708;37.478;2023-07-08T08:16:04;99318.81;;;23.22;55.38
49825;BME280;35714;55.708;37.478;2023-07-08T08:18:30;99322.69;;;23.21;55.52
49825;BME280;35714;55.708;37.478;2023-07-08T08:20:56;99323.81;;;23.20;55.45
49825;BME280;35714;55.708;37.478;2023-07-08T08:23:22;99335.09;;;23.23;55.31
49825;BME280;35714;55.708;37.478;2023-07-08T08:25:50;99328.22;;;23.21;55.41
49825;BME280;35714;55.708;37.478;2023-07-08T08:28:15;99325.00;;;23.19;55.61
49825;BME280;35714;55.708;37.478;2023-07-08T08:30:41;99330.34;;;23.24;55.73
49825;BME280;35714;55.708;37.478;2023-07-08T08:33:07;99334.28;;;23.32;55.51
49825;BME280;35714;55.708;37.478;2023-07-08T08:35:32;99329.41;;;23.37;55.42
49825;BME280;35714;55.708;37.478;2023-07-08T08:37:58;99332.19;;;23.46;55.15
49825;BME280;35714;55.708;37.478;2023-07-08T08:40:24;99321.13;;;23.55;54.85
49825;BME280;35714;55.708;37.478;2023-07-08T08:42:53;99328.78;;;23.67;54.59
49825;BME280;35714;55.708;37.478;2023-07-08T08:45:23;99323.91;;;23.81;54.16
49825;BME280;35714;55.708;37.478;2023-07-08T08:48:02;99323.13;;;23.98;54.19
49825;BME280;35714;55.708;37.478;2023-07-08T08:50:38;99329.25;;;24.30;53.49
49825;BME280;35714;55.708;37.478;2023-07-08T08:53:10;99326.19;;;24.79;52.94
49825;BME280;35714;55.708;37.478;2023-07-08T08:55:37;99338.53;;;25.29;52.00
49825;BME280;35714;55.708;37.478;2023-07-08T09:00:48;99329.25;;;25.75;49.90
49825;BME280;35714;55.708;37.478;2023-07-08T09:03:52;99324.28;;;25.81;49.45
49825;BME280;35714;55.708;37.478;2023-07-08T09:06:24;99324.94;;;25.78;49.79
49825;BME280;35714;55.708;37.478;2023-07-08T09:08:51;99324.56;;;25.88;49.17
49825;BME280;35714;55.708;37.478;2023-07-08T09:13:52;99318.59;;;26.65;46.76
49825;BME280;35714;55.708;37.478;2023-07-08T09:16:45;99321.84;;;27.17;45.15
49825;BME280;35714;55.708;37.478;2023-07-08T09:24:45;99312.25;;;28.36;41.81
49825;BME280;35714;55.708;37.478;2023-07-08T09:27:12;99318.72;;;28.40;42.63
49825;BME280;35714;55.708;37.478;2023-07-08T09:29:38;99319.16;;;28.26;42.42
49825;BME280;35714;55.708;37.478;2023-07-08T09:32:17;99319.72;;;28.04;41.94
49825;BME280;35714;55.708;37.478;2023-07-08T09:35:07;99310.66;;;27.66;42.13
49825;BME280;35714;55.708;37.478;2023-07-08T09:37:36;99326.69;;;27.45;42.45
49825;BME280;35714;55.708;37.478;2023-07-08T09:40:23;99320.47;;;27.23;42.72
49825;BME280;35714;55.708;37.478;2023-07-08T09:42:59;99320.91;;;27.13;43.33
49825;BME280;35714;55.708;37.478;2023-07-08T09:45:28;99319.88;;;27.30;42.82
49825;BME280;35714;55.708;37.478;2023-07-08T09:47:57;99319.03;;;27.54;41.94
49825;BME280;35714;55.708;37.478;2023-07-08T09:50:28;99323.84;;;27.82;42.04
49825;BME280;35714;55.708;37.478;2023-07-08T09:52:56;99324.63;;;27.82;41.64
49825;BME280;35714;55.708;37.478;2023-07-08T09:55:30;99331.19;;;27.62;41.55
49825;BME280;35714;55.708;37.478;2023-07-08T09:57:58;99322.22;;;27.40;42.35
49825;BME280;35714;55.708;37.478;2023-07-08T10:00:50;99331.69;;;27.51;42.13
49825;BME280;35714;55.708;37.478;2023-07-08T10:03:27;99321.78;;;28.07;41.77
49825;BME280;35714;55.708;37.478;2023-07-08T10:05:56;99322.41;;;29.40;39.45
49825;BME280;35714;55.708;37.478;2023-07-08T10:08:25;99323.47;;;30.49;38.17
49825;BME280;35714;55.708;37.478;2023-07-08T10:11:19;99324.03;;;31.05;36.40
49825;BME280;35714;55.708;37.478;2023-07-08T10:13:50;99327.28;;;31.07;36.35
49825;BME280;35714;55.708;37.478;2023-07-08T10:16:25;99312.06;;;31.35;34.93
49825;BME280;35714;55.708;37.478;2023-07-08T10:18:52;99311.50;;;32.13;34.74
49825;BME280;35714;55.708;37.478;2023-07-08T10:35:21;99314.25;;;33.43;30.71
49825;BME280;35714;55.708;37.478;2023-07-08T10:43:05;99307.25;;;33.16;30.60
49825;BME280;35714;55.708;37.478;2023-07-08T10:50:51;99310.81;;;31.89;32.21
49825;BME280;35714;55.708;37.478;2023-07-08T10:53:37;99303.56;;;31.88;31.64
49825;BME280;35714;55.708;37.478;2023-07-08T10:56:18;99312.50;;;31.97;32.01
49825;BME280;35714;55.708;37.478;2023-07-08T10:59:11;99307.41;;;32.07;31.01
49825;BME280;35714;55.708;37.478;2023-07-08T11:04:19;99313.59;;;33.65;29.73
49825;BME280;35714;55.708;37.478;2023-07-08T11:06:54;99312.59;;;34.16;29.09
49825;BME280;35714;55.708;37.478;2023-07-08T11:09:48;99324.25;;;34.22;27.50
49825;BME280;35714;55.708;37.478;2023-07-08T11:12:45;99327.53;;;34.31;28.14
49825;BME280;35714;55.708;37.478;2023-07-08T11:17:51;99331.16;;;34.24;27.97
49825;BME280;35714;55.708;37.478;2023-07-08T11:20:24;99322.22;;;34.08;27.41
49825;BME280;35714;55.708;37.478;2023-07-08T11:23:00;99319.78;;;34.06;27.84
49825;BME280;35714;55.708;37.478;2023-07-08T11:25:29;99324.53;;;33.88;28.67
49825;BME280;35714;55.708;37.478;2023-07-08T11:27:57;99322.81;;;33.69;28.59
49825;BME280;35714;55.708;37.478;2023-07-08T11:30:28;99322.78;;;33.58;28.97
49825;BME280;35714;55.708;37.478;2023-07-08T11:33:03;99333.28;;;33.68;29.18
49825;BME280;35714;55.708;37.478;2023-07-08T11:35:42;99327.66;;;33.65;28.49
49825;BME280;35714;55.708;37.478;2023-07-08T11:38:15;99326.03;;;33.63;28.07
49825;BME280;35714;55.708;37.478;2023-07-08T11:41:01;99321.34;;;33.89;28.30
49825;BME280;35714;55.708;37.478;2023-07-08T11:43:38;99323.75;;;33.91;27.02
49825;BME280;35714;55.708;37.478;2023-07-08T11:46:14;99320.38;;;33.60;25.89
49825;BME280;35714;55.708;37.478;2023-07-08T11:48:51;99327.66;;;33.09;26.77
49825;BME280;35714;55.708;37.478;2023-07-08T11:51:30;99333.25;;;32.61;27.95
49825;BME280;35714;55.708;37.478;2023-07-08T11:59:25;99341.69;;;31.09;29.79
49825;BME280;35714;55.708;37.478;2023-07-08T12:01:53;99331.13;;;30.52;30.13
49825;BME280;35714;55.708;37.478;2023-07-08T12:04:29;99326.00;;;29.96;31.26
49825;BME280;35714;55.708;37.478;2023-07-08T12:07:11;99328.03;;;29.60;32.03
49825;BME280;35714;55.708;37.478;2023-07-08T12:09:44;99330.91;;;29.28;32.99
49825;BME280;35714;55.708;37.478;2023-07-08T12:12:21;99318.66;;;29.16;32.79
49825;BME280;35714;55.708;37.478;2023-07-08T12:14:47;99318.09;;;29.27;33.17
49825;BME280;35714;55.708;37.478;2023-07-08T12:17:14;99325.09;;;29.52;32.78
49825;BME280;35714;55.708;37.478;2023-07-08T12:19:42;99320.78;;;30.14;32.37
49825;BME280;35714;55.708;37.478;2023-07-08T12:22:10;99320.47;;;31.35;30.94
49825;BME280;35714;55.708;37.478;2023-07-08T12:24:38;99318.09;;;32.65;28.90
49825;BME280;35714;55.708;37.478;2023-07-08T12:27:04;99311.88;;;33.45;27.81
49825;BME280;35714;55.708;37.478;2023-07-08T12:29:31;99317.47;;;34.30;25.89
49825;BME280;35714;55.708;37.478;2023-07-08T12:31:58;99309.47;;;34.68;25.60
49825;BME280;35714;55.708;37.478;2023-07-08T12:34:25;99313.47;;;35.24;25.36
49825;BME280;35714;55.708;37.478;2023-07-08T12:36:51;99315.66;;;36.09;24.12
49825;BME280;35714;55.708;37.478;2023-07-08T12:39:18;99308.13;;;36.58;23.54
49825;BME280;35714;55.708;37.478;2023-07-08T12:41:45;99310.09;;;36.61;23.67
49825;BME280;35714;55.708;37.478;2023-07-08T12:44:22;99303.56;;;36.72;23.00
49825;BME280;35714;55.708;37.478;2023-07-08T12:46:51;99310.28;;;36.92;23.46
49825;BME280;35714;55.708;37.478;2023-07-08T12:49:18;99314.22;;;37.02;23.58
49825;BME280;35714;55.708;37.478;2023-07-08T12:51:45;99306.81;;;37.19;22.96
49825;BME280;35714;55.708;37.478;2023-07-08T12:54:12;99302.56;;;37.42;22.22
49825;BME280;35714;55.708;37.478;2023-07-08T12:56:44;99307.09;;;37.66;21.73
49825;BME280;35714;55.708;37.478;2023-07-08T12:59:17;99308.19;;;38.10;21.77
49825;BME280;35714;55.708;37.478;2023-07-08T13:01:45;99307.09;;;38.32;21.83
49825;BME280;35714;55.708;37.478;2023-07-08T13:04:12;99310.63;;;37.78;22.07
49825;BME280;35714;55.708;37.478;2023-07-08T13:06:39;99304.41;;;37.17;22.40
49825;BME280;35714;55.708;37.478;2023-07-08T13:11:44;99314.22;;;35.72;23.54
49825;BME280;35714;55.708;37.478;2023-07-08T13:14:12;99304.63;;;35.22;24.12
49825;BME280;35714;55.708;37.478;2023-07-08T13:16:39;99309.50;;;35.04;24.47
49825;BME280;35714;55.708;37.478;2023-07-08T13:19:05;99305.50;;;35.01;24.18
49825;BME280;35714;55.708;37.478;2023-07-08T13:21:31;99301.81;;;35.37;23.59
49825;BME280;35714;55.708;37.478;2023-07-08T13:23:58;99290.84;;;35.68;23.34
49825;BME280;35714;55.708;37.478;2023-07-08T13:26:29;99294.56;;;36.35;23.17
49825;BME280;35714;55.708;37.478;2023-07-08T13:29:05;99291.59;;;37.06;22.24
49825;BME280;35714;55.708;37.478;2023-07-08T13:31:38;99300.66;;;37.31;21.53
49825;BME280;35714;55.708;37.478;2023-07-08T13:34:09;99288.56;;;37.65;21.56
49825;BME280;35714;55.708;37.478;2023-07-08T13:36:39;99298.94;;;37.76;21.23
49825;BME280;35714;55.708;37.478;2023-07-08T13:39:08;99291.78;;;37.29;21.71
49825;BME280;35714;55.708;37.478;2023-07-08T13:41:34;99294.44;;;36.53;22.04
49825;BME280;35714;55.708;37.478;2023-07-08T13:44:05;99303.72;;;35.76;23.07
49825;BME280;35714;55.708;37.478;2023-07-08T13:46:58;99298.22;;;35.11;23.71
49825;BME280;35714;55.708;37.478;2023-07-08T13:49:40;99298.59;;;34.48;24.47
49825;BME280;35714;55.708;37.478;2023-07-08T13:54:45;99296.19;;;33.41;25.40
49825;BME280;35714;55.708;37.478;2023-07-08T13:57:16;99298.25;;;32.92;25.62
49825;BME280;35714;55.708;37.478;2023-07-08T13:59:42;99287.88;;;32.51;26.04
49825;BME280;35714;55.708;37.478;2023-07-08T14:02:23;99291.88;;;32.13;26.38